Time;durP1;ratioP1;P1;durP2;ratioP2;P2;SDS_P1;SDS_P2;PMS_P1;PMS_P2;Temp;Humidity;BMP_temperature;BMP_pressure;BME280_temperature;BME280_humidity;BME280_pressure;Samples;Min_cycle;Max_cycle;Signal;HPM_P1;HPM_P2
2023/11/24 00:00:11;;;;;;;97.47;92.23;;;;;;;;;;5070159;28;20796;-76
2023/11/24 00:02:38;;;;;;;90.53;85.67;;;;;;;;;;5070227;28;21030;-76
2023/11/24 00:05:07;;;;;;;85.03;80.73;;;;;;;;;;5066584;28;20450;-76
2023/11/24 00:07:34;;;;;;;87.03;82.10;;;;;;;;;;5070158;28;20481;-76
2023/11/24 00:10:07;;;;;;;85.50;81.13;;;;;;;;;;5070239;28;20441;-76
2023/11/24 00:12:34;;;;;;;78.97;74.90;;;;;;;;;;5069953;28;20463;-77
2023/11/24 00:15:02;;;;;;;85.63;80.67;;;;;;;;;;5069533;28;20777;-75
2023/11/24 00:17:29;;;;;;;84.20;79.70;;;;;;;;;;5069963;28;20585;-76
2023/11/24 00:19:56;;;;;;;82.50;77.93;;;;;;;;;;5069937;28;20454;-78
2023/11/24 00:22:23;;;;;;;83.07;78.20;;;;;;;;;;5069720;28;20497;-75
2023/11/24 00:24:51;;;;;;;84.17;78.70;;;;;;;;;;5069269;28;20441;-77
2023/11/24 00:27:20;;;;;;;84.87;80.03;;;;;;;;;;5069888;28;20505;-75
2023/11/24 00:29:49;;;;;;;83.10;78.67;;;;;;;;;;5069921;28;20516;-75
2023/11/24 00:32:16;;;;;;;85.23;80.03;;;;;;;;;;5070087;28;20465;-77
2023/11/24 00:34:44;;;;;;;80.50;76.10;;;;;;;;;;5069139;28;20940;-77
2023/11/24 00:37:11;;;;;;;80.83;76.17;;;;;;;;;;5069828;28;20539;-75
2023/11/24 00:39:38;;;;;;;76.35;72.13;;;;;;;;;;5069823;28;20416;-76
2023/11/24 00:42:07;;;;;;;74.28;70.18;;;;;;;;;;5070158;28;20602;-77
2023/11/24 00:44:36;;;;;;;75.10;71.30;;;;;;;;;;5069367;28;20241;-75
2023/11/24 00:47:03;;;;;;;72.32;68.13;;;;;;;;;;5069619;28;20461;-76
2023/11/24 00:49:30;;;;;;;70.18;66.47;;;;;;;;;;5069769;28;20200;-76
2023/11/24 00:51:57;;;;;;;73.95;69.65;;;;;;;;;;5070143;28;20617;-77
2023/11/24 00:54:24;;;;;;;70.47;66.50;;;;;;;;;;5069330;28;20204;-78
2023/11/24 00:56:51;;;;;;;66.60;62.88;;;;;;;;;;5063664;28;20794;-76
2023/11/24 00:59:18;;;;;;;74.60;70.25;;;;;;;;;;5049665;28;20211;-78
2023/11/24 01:01:46;;;;;;;73.63;69.63;;;;;;;;;;5049551;28;20568;-76
2023/11/24 01:04:13;;;;;;;71.82;67.82;;;;;;;;;;5048878;28;20490;-76
2023/11/24 01:06:40;;;;;;;74.10;69.97;;;;;;;;;;5049349;28;20228;-77
2023/11/24 01:09:09;;;;;;;69.23;65.33;;;;;;;;;;5049171;28;20458;-76
2023/11/24 01:11:36;;;;;;;73.03;69.32;;;;;;;;;;5048615;28;20894;-75
2023/11/24 01:14:04;;;;;;;65.97;62.75;;;;;;;;;;5048573;28;20208;-76
2023/11/24 01:16:31;;;;;;;61.47;57.63;;;;;;;;;;5048952;28;20234;-77
2023/11/24 01:19:00;;;;;;;60.53;57.07;;;;;;;;;;5049225;28;20443;-76
2023/11/24 01:21:27;;;;;;;57.83;54.90;;;;;;;;;;5049075;28;20455;-77
2023/11/24 01:23:59;;;;;;;60.37;57.17;;;;;;;;;;5048820;28;20477;-75
2023/11/24 01:26:26;;;;;;;58.80;54.93;;;;;;;;;;5049356;28;20573;-75
2023/11/24 01:28:53;;;;;;;59.80;56.72;;;;;;;;;;5049271;28;20458;-77
2023/11/24 01:31:20;;;;;;;58.83;55.63;;;;;;;;;;5049439;28;20220;-77
2023/11/24 01:33:47;;;;;;;53.63;50.72;;;;;;;;;;5049046;28;20451;-77
2023/11/24 01:36:15;;;;;;;50.33;47.10;;;;;;;;;;5048974;28;20232;-75
2023/11/24 01:38:42;;;;;;;51.13;48.43;;;;;;;;;;5051506;28;20204;-75
2023/11/24 01:41:09;;;;;;;48.17;45.37;;;;;;;;;;5052498;28;20908;-76
2023/11/24 01:43:37;;;;;;;50.30;47.03;;;;;;;;;;5052445;28;20573;-76
2023/11/24 01:46:05;;;;;;;42.97;40.80;;;;;;;;;;5051825;28;20455;-76
2023/11/24 01:48:33;;;;;;;39.90;37.03;;;;;;;;;;5052574;28;20454;-77
2023/11/24 01:51:00;;;;;;;41.60;38.90;;;;;;;;;;5052537;28;20504;-75
2023/11/24 01:53:29;;;;;;;39.50;36.57;;;;;;;;;;5052625;28;20212;-77
2023/11/24 01:55:56;;;;;;;39.30;36.30;;;;;;;;;;5051109;28;20489;-76
2023/11/24 01:58:23;;;;;;;34.40;32.33;;;;;;;;;;5052281;28;20469;-76
2023/11/24 02:00:50;;;;;;;35.77;33.63;;;;;;;;;;5052341;28;20831;-76
2023/11/24 02:03:17;;;;;;;35.37;33.57;;;;;;;;;;5052090;28;20478;-76
2023/11/24 02:05:44;;;;;;;33.38;31.52;;;;;;;;;;5051791;28;20438;-75
2023/11/24 02:08:12;;;;;;;32.47;30.83;;;;;;;;;;5071355;28;20235;-76
2023/11/24 02:10:40;;;;;;;33.65;31.63;;;;;;;;;;5071968;28;20951;-77
2023/11/24 02:13:07;;;;;;;34.27;32.60;;;;;;;;;;5072010;28;20219;-75
2023/11/24 02:15:35;;;;;;;31.48;29.88;;;;;;;;;;5057232;28;21266;-74
2023/11/24 02:18:02;;;;;;;28.60;26.83;;;;;;;;;;5051650;28;20228;-75
2023/11/24 02:20:33;;;;;;;28.42;26.13;;;;;;;;;;5051887;28;20219;-76
2023/11/24 02:23:01;;;;;;;25.63;24.23;;;;;;;;;;5051551;28;20197;-75
2023/11/24 02:25:28;;;;;;;25.67;24.38;;;;;;;;;;5051437;28;20204;-74
2023/11/24 02:27:55;;;;;;;24.05;22.75;;;;;;;;;;5051794;28;20228;-77
2023/11/24 02:30:22;;;;;;;25.20;23.63;;;;;;;;;;5051648;28;20246;-76
2023/11/24 02:32:49;;;;;;;27.40;25.25;;;;;;;;;;5051612;28;20211;-76
2023/11/24 02:35:16;;;;;;;28.33;26.38;;;;;;;;;;5050966;28;20238;-75
2023/11/24 02:37:43;;;;;;;27.45;25.25;;;;;;;;;;5051572;28;20228;-76
2023/11/24 02:40:13;;;;;;;26.00;24.23;;;;;;;;;;5051554;28;20207;-75
2023/11/24 02:42:40;;;;;;;27.57;25.73;;;;;;;;;;5057676;28;20706;-76
2023/11/24 02:45:08;;;;;;;26.48;25.08;;;;;;;;;;5051227;28;20515;-76
2023/11/24 02:47:35;;;;;;;27.63;25.73;;;;;;;;;;5051442;28;20228;-75
2023/11/24 02:50:02;;;;;;;26.10;24.70;;;;;;;;;;5051419;28;20526;-75
2023/11/24 02:52:29;;;;;;;25.75;24.05;;;;;;;;;;5051303;28;20269;-76
2023/11/24 02:54:56;;;;;;;27.60;26.00;;;;;;;;;;5050970;28;20207;-76
2023/11/24 02:57:25;;;;;;;27.30;25.20;;;;;;;;;;5051270;28;20477;-76
2023/11/24 02:59:52;;;;;;;29.20;27.17;;;;;;;;;;5051134;28;20212;-77
2023/11/24 03:02:19;;;;;;;29.27;27.42;;;;;;;;;;5051175;28;20204;-77
2023/11/24 03:04:46;;;;;;;26.83;24.70;;;;;;;;;;5054614;28;20239;-75
2023/11/24 03:07:13;;;;;;;25.90;24.50;;;;;;;;;;5070730;28;20469;-75
2023/11/24 03:09:40;;;;;;;29.65;27.55;;;;;;;;;;5070519;28;20435;-74
2023/11/24 03:12:11;;;;;;;25.50;24.07;;;;;;;;;;5070947;28;20208;-75
2023/11/24 03:14:41;;;;;;;26.38;24.38;;;;;;;;;;5070244;28;20495;-76
2023/11/24 03:17:08;;;;;;;26.10;24.70;;;;;;;;;;5059982;28;20231;-76
2023/11/24 03:19:35;;;;;;;25.08;23.40;;;;;;;;;;5050574;28;20533;-74
2023/11/24 03:22:02;;;;;;;25.10;23.58;;;;;;;;;;5050754;28;20216;-76
2023/11/24 03:24:29;;;;;;;25.60;24.13;;;;;;;;;;5050014;28;20223;-76
2023/11/24 03:26:56;;;;;;;27.05;25.05;;;;;;;;;;5050707;28;20232;-76
2023/11/24 03:29:23;;;;;;;27.90;25.73;;;;;;;;;;5050737;28;20212;-75
2023/11/24 03:31:52;;;;;;;24.40;22.80;;;;;;;;;;5050566;28;20200;-77
2023/11/24 03:34:19;;;;;;;23.98;22.42;;;;;;;;;;5049416;28;20522;-74
2023/11/24 03:36:46;;;;;;;25.02;23.45;;;;;;;;;;5067720;28;20975;-76
2023/11/24 03:39:14;;;;;;;26.83;24.50;;;;;;;;;;5070478;28;20290;-76
2023/11/24 03:41:41;;;;;;;24.07;22.50;;;;;;;;;;5070094;28;20449;-76
2023/11/24 03:44:08;;;;;;;25.33;23.83;;;;;;;;;;5069742;28;20459;-75
2023/11/24 03:46:35;;;;;;;24.00;22.70;;;;;;;;;;5070262;28;20548;-75
2023/11/24 03:49:04;;;;;;;26.40;24.90;;;;;;;;;;5070683;28;20257;-75
2023/11/24 03:51:32;;;;;;;26.25;24.85;;;;;;;;;;5061544;28;21257;-75
2023/11/24 03:53:59;;;;;;;26.53;25.10;;;;;;;;;;5050026;28;20208;-77
2023/11/24 03:56:27;;;;;;;25.40;23.60;;;;;;;;;;5049898;28;20524;-76
2023/11/24 03:58:54;;;;;;;25.93;24.23;;;;;;;;;;5050186;28;20953;-76
2023/11/24 04:01:21;;;;;;;23.50;21.85;;;;;;;;;;5049757;28;20442;-75
2023/11/24 04:03:48;;;;;;;23.53;21.67;;;;;;;;;;5049531;28;20762;-76
2023/11/24 04:06:16;;;;;;;22.48;21.08;;;;;;;;;;5049979;28;20479;-76
2023/11/24 04:08:44;;;;;;;22.20;20.83;;;;;;;;;;5056800;28;20578;-75
2023/11/24 04:11:11;;;;;;;22.33;21.15;;;;;;;;;;5070181;28;20453;-75
2023/11/24 04:13:38;;;;;;;21.85;20.40;;;;;;;;;;5069606;28;20734;-75
2023/11/24 04:16:05;;;;;;;22.67;21.10;;;;;;;;;;5068964;28;20208;-76
2023/11/24 04:18:32;;;;;;;21.33;19.98;;;;;;;;;;5069861;28;20211;-77
2023/11/24 04:20:59;;;;;;;21.23;19.73;;;;;;;;;;5069604;28;20671;-76
2023/11/24 04:23:28;;;;;;;21.95;20.23;;;;;;;;;;5069968;28;20208;-76
2023/11/24 04:25:55;;;;;;;21.45;20.13;;;;;;;;;;5068908;28;20698;-76
2023/11/24 04:28:22;;;;;;;20.45;18.90;;;;;;;;;;5069929;28;20212;-76
2023/11/24 04:30:49;;;;;;;21.35;19.58;;;;;;;;;;5070002;28;20269;-76
2023/11/24 04:33:15;;;;;;;21.88;20.00;;;;;;;;;;5070236;28;20203;-75
2023/11/24 04:35:42;;;;;;;21.40;20.10;;;;;;;;;;5069291;28;20206;-76
2023/11/24 04:38:09;;;;;;;21.00;19.70;;;;;;;;;;5070007;28;20223;-75
2023/11/24 04:40:38;;;;;;;20.37;19.17;;;;;;;;;;5069831;28;20548;-76
2023/11/24 04:43:05;;;;;;;21.10;19.63;;;;;;;;;;5069954;28;20552;-76
2023/11/24 04:45:34;;;;;;;22.70;20.77;;;;;;;;;;5069066;28;20822;-76
2023/11/24 04:48:01;;;;;;;20.70;19.25;;;;;;;;;;5069723;28;20895;-76
2023/11/24 04:50:28;;;;;;;22.20;20.27;;;;;;;;;;5070235;28;20261;-76
2023/11/24 04:52:55;;;;;;;29.87;27.20;;;;;;;;;;5069661;28;20971;-76
2023/11/24 04:55:22;;;;;;;34.00;30.48;;;;;;;;;;5068686;28;20465;-75
2023/11/24 04:57:50;;;;;;;30.83;28.17;;;;;;;;;;5070101;28;20582;-75
2023/11/24 05:00:18;;;;;;;49.28;39.35;;;;;;;;;;5070057;28;20207;-77
2023/11/24 05:02:45;;;;;;;58.97;44.88;;;;;;;;;;5069668;28;20636;-76
2023/11/24 05:05:12;;;;;;;92.55;62.17;;;;;;;;;;5069020;28;20231;-76
2023/11/24 05:07:39;;;;;;;25.83;23.05;;;;;;;;;;5069451;28;20223;-75
2023/11/24 05:10:07;;;;;;;52.40;46.75;;;;;;;;;;5069661;28;20203;-75
2023/11/24 05:12:35;;;;;;;40.50;36.27;;;;;;;;;;5070460;28;20212;-75
2023/11/24 05:15:07;;;;;;;29.55;26.80;;;;;;;;;;5072547;28;21211;-75
2023/11/24 05:17:34;;;;;;;26.17;23.65;;;;;;;;;;5072886;28;20234;-76
2023/11/24 05:20:02;;;;;;;24.45;22.45;;;;;;;;;;5072871;28;20735;-75
2023/11/24 05:22:29;;;;;;;20.23;18.85;;;;;;;;;;5073102;28;20200;-76
2023/11/24 05:24:57;;;;;;;21.70;20.03;;;;;;;;;;5072076;28;20706;-76
2023/11/24 05:27:24;;;;;;;19.75;18.23;;;;;;;;;;5073140;28;20531;-76
2023/11/24 05:29:51;;;;;;;22.27;20.35;;;;;;;;;;5072935;28;20907;-76
2023/11/24 05:32:19;;;;;;;20.85;18.98;;;;;;;;;;5073077;28;20207;-75
2023/11/24 05:34:46;;;;;;;19.70;17.95;;;;;;;;;;5072465;28;20545;-76
2023/11/24 05:37:13;;;;;;;19.83;18.43;;;;;;;;;;5072492;28;20322;-76
2023/11/24 05:39:40;;;;;;;19.85;18.23;;;;;;;;;;5072846;28;20450;-75
2023/11/24 05:42:07;;;;;;;21.00;18.73;;;;;;;;;;5072288;28;20216;-74
2023/11/24 05:44:34;;;;;;;19.63;18.07;;;;;;;;;;5072026;28;20341;-75
2023/11/24 05:47:04;;;;;;;20.98;19.17;;;;;;;;;;5072623;28;20477;-76
2023/11/24 05:49:33;;;;;;;19.13;17.27;;;;;;;;;;5072702;28;20207;-74
2023/11/24 05:52:00;;;;;;;19.17;17.67;;;;;;;;;;5072253;28;20290;-76
2023/11/24 05:54:27;;;;;;;18.88;17.23;;;;;;;;;;5071260;28;20968;-76
2023/11/24 05:56:54;;;;;;;18.67;17.25;;;;;;;;;;5072584;28;20231;-76
2023/11/24 05:59:22;;;;;;;20.08;18.42;;;;;;;;;;5072182;28;20569;-75
2023/11/24 06:01:49;;;;;;;18.95;17.85;;;;;;;;;;5072433;28;20207;-75
2023/11/24 06:04:17;;;;;;;18.10;17.00;;;;;;;;;;5071634;28;20617;-76
2023/11/24 06:06:47;;;;;;;18.33;17.30;;;;;;;;;;5072290;28;20467;-74
2023/11/24 06:09:14;;;;;;;18.63;17.17;;;;;;;;;;5072277;28;20294;-74
2023/11/24 06:11:41;;;;;;;17.42;16.40;;;;;;;;;;5072255;28;20304;-76
2023/11/24 06:14:08;;;;;;;18.55;16.92;;;;;;;;;;5070575;28;20941;-75
2023/11/24 06:16:35;;;;;;;17.08;16.10;;;;;;;;;;5071715;28;20318;-76
2023/11/24 06:19:02;;;;;;;17.58;16.40;;;;;;;;;;5071904;28;20315;-75
2023/11/24 06:21:29;;;;;;;18.65;17.05;;;;;;;;;;5072070;28;20285;-75
2023/11/24 06:23:59;;;;;;;18.17;16.90;;;;;;;;;;5070946;28;20684;-74
2023/11/24 06:26:27;;;;;;;18.73;17.10;;;;;;;;;;5071656;28;20256;-74
2023/11/24 06:28:54;;;;;;;17.70;16.70;;;;;;;;;;5071979;28;20211;-74
2023/11/24 06:31:21;;;;;;;18.10;16.85;;;;;;;;;;5069049;28;20214;-76
2023/11/24 06:33:49;;;;;;;17.65;16.45;;;;;;;;;;5071237;28;20653;-75
2023/11/24 06:36:16;;;;;;;19.00;17.45;;;;;;;;;;5071359;28;20225;-76
2023/11/24 06:38:43;;;;;;;19.67;18.27;;;;;;;;;;5071544;28;20239;-75
2023/11/24 06:41:12;;;;;;;17.50;16.60;;;;;;;;;;5071808;28;20261;-76
2023/11/24 06:43:39;;;;;;;18.40;17.05;;;;;;;;;;5071653;28;20231;-75
2023/11/24 06:46:06;;;;;;;21.17;19.58;;;;;;;;;;5066002;28;20698;-75
2023/11/24 06:48:34;;;;;;;19.70;17.60;;;;;;;;;;5071497;28;20970;-76
2023/11/24 06:51:02;;;;;;;19.00;17.75;;;;;;;;;;5071143;28;20663;-76
2023/11/24 06:53:29;;;;;;;18.33;16.92;;;;;;;;;;5071454;28;20211;-76
2023/11/24 06:55:58;;;;;;;19.48;18.13;;;;;;;;;;5070645;28;20214;-74
2023/11/24 06:58:26;;;;;;;17.92;16.83;;;;;;;;;;5071431;28;20257;-75
2023/11/24 07:00:53;;;;;;;17.92;16.70;;;;;;;;;;5071406;28;20211;-74
2023/11/24 07:03:20;;;;;;;19.20;17.17;;;;;;;;;;5071893;28;20261;-76
2023/11/24 07:05:47;;;;;;;18.58;17.13;;;;;;;;;;5071071;28;20227;-76
2023/11/24 07:08:16;;;;;;;18.80;17.08;;;;;;;;;;5070625;28;20780;-75
2023/11/24 07:10:43;;;;;;;17.35;16.45;;;;;;;;;;5068257;28;20218;-75
2023/11/24 07:13:10;;;;;;;17.65;16.73;;;;;;;;;;5070516;28;20313;-75
2023/11/24 07:15:39;;;;;;;18.42;17.00;;;;;;;;;;5070520;28;20233;-76
2023/11/24 07:18:06;;;;;;;18.92;17.58;;;;;;;;;;5070466;28;20223;-75
2023/11/24 07:20:33;;;;;;;17.85;16.67;;;;;;;;;;5059092;28;20212;-75
2023/11/24 07:23:00;;;;;;;18.50;17.10;;;;;;;;;;5062343;28;20253;-75
2023/11/24 07:25:27;;;;;;;17.45;16.55;;;;;;;;;;5057250;28;20481;-74
2023/11/24 07:27:54;;;;;;;18.85;17.45;;;;;;;;;;5052109;28;21099;-75
2023/11/24 07:30:22;;;;;;;20.40;18.77;;;;;;;;;;5050624;28;20207;-75
2023/11/24 07:32:51;;;;;;;17.98;17.17;;;;;;;;;;5050159;28;20701;-74
2023/11/24 07:35:18;;;;;;;18.77;17.77;;;;;;;;;;5050557;28;20204;-75
2023/11/24 07:37:45;;;;;;;18.95;17.83;;;;;;;;;;5067344;28;20230;-74
2023/11/24 07:40:14;;;;;;;19.05;18.05;;;;;;;;;;5069858;28;20245;-75
2023/11/24 07:42:43;;;;;;;20.92;19.05;;;;;;;;;;5070497;28;20207;-74
2023/11/24 07:45:11;;;;;;;19.45;17.95;;;;;;;;;;5069674;28;20231;-75
2023/11/24 07:47:39;;;;;;;19.35;17.92;;;;;;;;;;5070165;28;20227;-75
2023/11/24 07:50:08;;;;;;;19.45;18.25;;;;;;;;;;5065691;28;20232;-75
2023/11/24 07:52:35;;;;;;;19.17;17.52;;;;;;;;;;5049684;28;20585;-76
2023/11/24 07:55:05;;;;;;;19.60;18.30;;;;;;;;;;5048983;28;20200;-75
2023/11/24 07:57:32;;;;;;;20.23;18.83;;;;;;;;;;5050445;28;20231;-74
2023/11/24 08:00:00;;;;;;;22.83;20.92;;;;;;;;;;5049857;28;20326;-74
2023/11/24 08:02:27;;;;;;;26.10;24.38;;;;;;;;;;5050136;28;20218;-74
2023/11/24 08:04:54;;;;;;;28.23;26.40;;;;;;;;;;5049394;28;20299;-75
2023/11/24 08:07:23;;;;;;;28.27;26.48;;;;;;;;;;5049873;28;20278;-75
2023/11/24 08:09:50;;;;;;;29.15;27.20;;;;;;;;;;5049436;28;20216;-76
2023/11/24 08:12:17;;;;;;;30.40;28.23;;;;;;;;;;5049060;28;20288;-75
2023/11/24 08:14:44;;;;;;;31.73;29.58;;;;;;;;;;5049221;28;20212;-76
2023/11/24 08:17:11;;;;;;;33.17;31.20;;;;;;;;;;5049931;28;20223;-74
2023/11/24 08:19:38;;;;;;;32.83;30.70;;;;;;;;;;5049973;28;20222;-75
2023/11/24 08:22:05;;;;;;;33.80;31.92;;;;;;;;;;5049754;28;20236;-75
2023/11/24 08:24:34;;;;;;;32.75;30.70;;;;;;;;;;5048803;28;20216;-75
2023/11/24 08:27:01;;;;;;;33.58;30.90;;;;;;;;;;5049576;28;20274;-75
2023/11/24 08:29:28;;;;;;;34.25;32.00;;;;;;;;;;5049806;28;20265;-75
2023/11/24 08:31:57;;;;;;;33.40;31.40;;;;;;;;;;5051596;28;20215;-87
2023/11/24 08:34:24;;;;;;;33.85;31.88;;;;;;;;;;5053474;28;20701;-78
2023/11/24 08:36:51;;;;;;;35.60;33.50;;;;;;;;;;5052599;28;20224;-79
2023/11/24 08:39:19;;;;;;;38.67;36.28;;;;;;;;;;5054480;28;20211;-80
2023/11/24 08:41:50;;;;;;;47.78;45.00;;;;;;;;;;5054871;28;20249;-81
2023/11/24 08:44:24;;;;;;;73.38;69.45;;;;;;;;;;5053137;28;20196;-83
2023/11/24 08:46:51;;;;;;;71.33;66.67;;;;;;;;;;5056382;28;20286;-79
2023/11/24 08:49:18;;;;;;;70.88;67.15;;;;;;;;;;5058824;28;20461;-80
2023/11/24 08:51:46;;;;;;;67.50;63.75;;;;;;;;;;5058659;28;20208;-81
2023/11/24 08:54:13;;;;;;;68.90;64.82;;;;;;;;;;5058147;28;20275;-80
2023/11/24 08:56:40;;;;;;;74.38;70.32;;;;;;;;;;5059387;28;20277;-79
2023/11/24 08:59:10;;;;;;;71.65;67.72;;;;;;;;;;5058568;28;20204;-78
2023/11/24 09:01:37;;;;;;;68.50;64.25;;;;;;;;;;5058922;28;20216;-79
2023/11/24 09:04:05;;;;;;;71.82;67.63;;;;;;;;;;5057534;28;20659;-80
2023/11/24 09:06:32;;;;;;;69.38;65.28;;;;;;;;;;5058270;28;20466;-80
2023/11/24 09:09:00;;;;;;;64.13;60.47;;;;;;;;;;5059171;28;20235;-82
2023/11/24 09:11:27;;;;;;;66.53;62.50;;;;;;;;;;5074956;28;20218;-80
2023/11/24 09:13:54;;;;;;;64.82;61.10;;;;;;;;;;5073461;28;20353;-78
2023/11/24 09:16:22;;;;;;;67.00;62.65;;;;;;;;;;5062817;28;20227;-79
2023/11/24 09:18:49;;;;;;;63.15;59.50;;;;;;;;;;5057455;28;20219;-79
2023/11/24 09:21:17;;;;;;;62.15;58.85;;;;;;;;;;5052882;28;20589;-77
2023/11/24 09:23:46;;;;;;;59.33;56.15;;;;;;;;;;5053014;28;20683;-88
2023/11/24 09:26:13;;;;;;;57.80;54.80;;;;;;;;;;5058017;28;20586;-81
2023/11/24 09:28:40;;;;;;;57.80;54.70;;;;;;;;;;5057029;28;20236;-78
2023/11/24 09:31:09;;;;;;;58.38;55.28;;;;;;;;;;5055328;28;20208;-78
2023/11/24 09:33:38;;;;;;;57.08;53.97;;;;;;;;;;5057215;28;20212;-78
2023/11/24 09:36:06;;;;;;;57.15;54.05;;;;;;;;;;5054146;28;20561;-79
2023/11/24 09:38:34;;;;;;;58.50;55.25;;;;;;;;;;5057592;28;20222;-86
2023/11/24 09:41:02;;;;;;;58.15;54.90;;;;;;;;;;5060079;28;20235;-88
2023/11/24 09:43:30;;;;;;;61.20;57.83;;;;;;;;;;5057925;28;20255;-82
2023/11/24 09:45:57;;;;;;;56.88;53.67;;;;;;;;;;5055293;28;20216;-79
2023/11/24 09:48:24;;;;;;;56.53;53.53;;;;;;;;;;5056168;28;20204;-79
2023/11/24 09:50:52;;;;;;;53.72;50.85;;;;;;;;;;5055213;28;20616;-81
2023/11/24 09:53:19;;;;;;;56.00;52.65;;;;;;;;;;5056491;28;20208;-79
2023/11/24 09:55:47;;;;;;;57.10;53.90;;;;;;;;;;5056689;28;20204;-82
2023/11/24 09:58:15;;;;;;;57.15;53.35;;;;;;;;;;5059230;28;20311;-86
2023/11/24 10:00:43;;;;;;;57.03;53.70;;;;;;;;;;5061053;28;20211;-87
2023/11/24 10:03:11;;;;;;;76.53;68.63;;;;;;;;;;5061621;28;20219;-85
2023/11/24 10:05:38;;;;;;;52.38;49.63;;;;;;;;;;5062365;28;20200;-82
2023/11/24 10:08:07;;;;;;;52.13;48.92;;;;;;;;;;5058855;28;20232;-77
2023/11/24 10:10:34;;;;;;;57.78;54.53;;;;;;;;;;5055668;28;20218;-77
2023/11/24 10:13:01;;;;;;;52.25;49.13;;;;;;;;;;5062458;28;20933;-77
2023/11/24 10:15:28;;;;;;;49.80;47.00;;;;;;;;;;5071889;28;20613;-76
2023/11/24 10:17:57;;;;;;;51.88;48.72;;;;;;;;;;5073589;28;20219;-75
2023/11/24 10:20:28;;;;;;;48.05;45.45;;;;;;;;;;5072383;28;20205;-75
2023/11/24 10:22:58;;;;;;;52.40;49.10;;;;;;;;;;5072199;28;20977;-75
2023/11/24 10:25:28;;;;;;;50.78;48.15;;;;;;;;;;5071474;28;20283;-75
2023/11/24 10:27:57;;;;;;;50.80;48.00;;;;;;;;;;5071748;28;20239;-75
2023/11/24 10:30:24;;;;;;;48.47;45.70;;;;;;;;;;5071187;28;20298;-74
2023/11/24 10:32:51;;;;;;;41.65;39.25;;;;;;;;;;5072086;28;20597;-74
2023/11/24 10:35:18;;;;;;;43.60;41.40;;;;;;;;;;5070891;28;20738;-74
2023/11/24 10:37:46;;;;;;;41.20;38.40;;;;;;;;;;5071633;28;20314;-74
2023/11/24 10:40:15;;;;;;;39.50;37.30;;;;;;;;;;5071673;28;20214;-74
2023/11/24 10:42:47;;;;;;;38.78;36.38;;;;;;;;;;5071016;28;20226;-74
2023/11/24 10:45:18;;;;;;;37.25;34.53;;;;;;;;;;5070972;28;20627;-73
2023/11/24 10:47:48;;;;;;;38.15;35.92;;;;;;;;;;5071788;28;20316;-77
2023/11/24 10:50:17;;;;;;;41.97;39.38;;;;;;;;;;5072263;28;20215;-74
2023/11/24 10:52:48;;;;;;;44.40;41.50;;;;;;;;;;5071167;28;20714;-74
2023/11/24 10:55:16;;;;;;;53.63;50.92;;;;;;;;;;5070894;28;20249;-76
2023/11/24 10:57:48;;;;;;;46.85;44.35;;;;;;;;;;5071693;28;20310;-75
2023/11/24 11:00:19;;;;;;;52.20;49.20;;;;;;;;;;5068944;28;20223;-79
2023/11/24 11:02:47;;;;;;;47.85;45.45;;;;;;;;;;5052229;28;20294;-74
2023/11/24 11:05:17;;;;;;;47.60;45.10;;;;;;;;;;5050968;28;20204;-74
2023/11/24 11:07:52;;;;;;;51.30;48.70;;;;;;;;;;5051563;28;20281;-74
2023/11/24 11:10:25;;;;;;;47.25;44.70;;;;;;;;;;5050986;28;20207;-76
2023/11/24 11:12:54;;;;;;;49.53;47.03;;;;;;;;;;5051549;28;20585;-77
2023/11/24 11:15:25;;;;;;;50.63;48.13;;;;;;;;;;5051044;28;20258;-74
2023/11/24 11:18:08;;;;;;;52.30;49.50;;;;;;;;;;5051636;28;20220;-75
2023/11/24 11:20:38;;;;;;;49.58;47.08;;;;;;;;;;5051512;28;20290;-76
2023/11/24 11:23:05;;;;;;;51.20;48.25;;;;;;;;;;5050393;28;20308;-76
2023/11/24 11:25:39;;;;;;;50.85;47.95;;;;;;;;;;5050510;28;20616;-76
2023/11/24 11:28:25;;;;;;;48.92;46.22;;;;;;;;;;5050376;28;20342;-76
2023/11/24 11:30:57;;;;;;;50.08;47.13;;;;;;;;;;5052268;28;20291;-75
2023/11/24 11:33:24;;;;;;;51.78;48.97;;;;;;;;;;5051178;28;20612;-76
2023/11/24 11:36:01;;;;;;;49.47;46.67;;;;;;;;;;5050407;28;20208;-77
2023/11/24 11:38:40;;;;;;;46.47;43.58;;;;;;;;;;5050701;28;20192;-75
2023/11/24 11:41:07;;;;;;;46.95;44.35;;;;;;;;;;5049388;28;20219;-77
2023/11/24 11:43:52;;;;;;;44.63;41.80;;;;;;;;;;5049334;28;20204;-73
2023/11/24 11:46:22;;;;;;;44.88;42.40;;;;;;;;;;5052462;28;20517;-73
2023/11/24 11:48:49;;;;;;;49.90;46.55;;;;;;;;;;5053642;28;20203;-73
2023/11/24 11:51:17;;;;;;;43.80;40.88;;;;;;;;;;5050902;28;20269;-73
2023/11/24 11:53:44;;;;;;;41.95;39.42;;;;;;;;;;5049802;28;20234;-73
2023/11/24 11:56:12;;;;;;;41.60;39.13;;;;;;;;;;5049407;28;20734;-73
2023/11/24 11:58:40;;;;;;;41.70;39.00;;;;;;;;;;5050735;28;20215;-74
2023/11/24 12:01:07;;;;;;;41.63;39.17;;;;;;;;;;5049012;28;20596;-76
2023/11/24 12:03:36;;;;;;;41.33;38.63;;;;;;;;;;5050008;28;20353;-74
2023/11/24 12:06:05;;;;;;;39.30;36.35;;;;;;;;;;5049323;28;20429;-73
2023/11/24 12:08:33;;;;;;;38.65;36.28;;;;;;;;;;5049092;28;20208;-75
2023/11/24 12:11:00;;;;;;;39.85;36.92;;;;;;;;;;5069684;28;20294;-74
2023/11/24 12:13:28;;;;;;;38.20;35.50;;;;;;;;;;5063498;28;20211;-74
2023/11/24 12:15:59;;;;;;;35.00;32.60;;;;;;;;;;5048809;28;20215;-73
2023/11/24 12:18:26;;;;;;;33.28;30.77;;;;;;;;;;5061121;28;20454;-73
2023/11/24 12:20:54;;;;;;;33.80;31.25;;;;;;;;;;5069577;28;20683;-74
2023/11/24 12:23:23;;;;;;;33.03;30.70;;;;;;;;;;5066851;28;20204;-75
2023/11/24 12:25:54;;;;;;;32.72;30.48;;;;;;;;;;5055283;28;20536;-76
2023/11/24 12:28:21;;;;;;;32.20;30.05;;;;;;;;;;5049735;28;20228;-75
2023/11/24 12:30:49;;;;;;;31.40;29.20;;;;;;;;;;5055881;28;20210;-76
2023/11/24 12:33:18;;;;;;;33.30;31.03;;;;;;;;;;5050917;28;20218;-75
2023/11/24 12:35:46;;;;;;;33.78;31.27;;;;;;;;;;5050163;28;20506;-75
2023/11/24 12:38:15;;;;;;;31.48;29.40;;;;;;;;;;5049088;28;20307;-75
2023/11/24 12:40:43;;;;;;;40.70;38.30;;;;;;;;;;5048747;28;20204;-76
2023/11/24 12:43:12;;;;;;;44.53;42.30;;;;;;;;;;5051191;28;20477;-77
2023/11/24 12:45:40;;;;;;;37.97;35.47;;;;;;;;;;5049479;28;20290;-77
2023/11/24 12:48:07;;;;;;;36.03;33.50;;;;;;;;;;5050788;28;20314;-79
2023/11/24 12:50:35;;;;;;;37.60;34.60;;;;;;;;;;5058496;28;20233;-79
2023/11/24 12:53:03;;;;;;;38.78;36.55;;;;;;;;;;5072418;28;20643;-78
2023/11/24 12:55:31;;;;;;;40.97;38.75;;;;;;;;;;5071508;28;20633;-81
2023/11/24 12:57:58;;;;;;;47.53;44.70;;;;;;;;;;5051397;28;20239;-77
2023/11/24 13:00:27;;;;;;;47.95;45.33;;;;;;;;;;5053265;28;20242;-80
2023/11/24 13:02:55;;;;;;;52.35;49.45;;;;;;;;;;5051514;28;20208;-74
2023/11/24 13:05:25;;;;;;;46.00;43.50;;;;;;;;;;5049062;28;20266;-75
2023/11/24 13:07:52;;;;;;;47.30;44.80;;;;;;;;;;5049386;28;20232;-75
2023/11/24 13:10:19;;;;;;;47.78;45.35;;;;;;;;;;5049483;28;20302;-74
2023/11/24 13:12:48;;;;;;;48.35;45.63;;;;;;;;;;5049527;28;20212;-74
2023/11/24 13:15:16;;;;;;;51.75;49.05;;;;;;;;;;5049321;28;20371;-75
2023/11/24 13:17:43;;;;;;;50.95;48.35;;;;;;;;;;5049494;28;20225;-76
2023/11/24 13:20:11;;;;;;;51.35;48.75;;;;;;;;;;5049654;28;20295;-74
2023/11/24 13:22:38;;;;;;;55.63;52.63;;;;;;;;;;5050037;28;20204;-74
2023/11/24 13:25:08;;;;;;;56.53;53.53;;;;;;;;;;5049033;28;20204;-73
2023/11/24 13:27:35;;;;;;;55.85;52.88;;;;;;;;;;5049475;28;20240;-73
2023/11/24 13:30:06;;;;;;;55.33;52.13;;;;;;;;;;5049279;28;20270;-73
2023/11/24 13:32:36;;;;;;;55.17;52.28;;;;;;;;;;5049275;28;20212;-72
2023/11/24 13:35:04;;;;;;;58.05;54.83;;;;;;;;;;5052143;28;20212;-73
2023/11/24 13:37:32;;;;;;;54.85;51.75;;;;;;;;;;5071454;28;20699;-74
2023/11/24 13:39:59;;;;;;;57.72;54.50;;;;;;;;;;5073361;28;20218;-73
2023/11/24 13:42:26;;;;;;;56.95;53.90;;;;;;;;;;5073240;28;20574;-73
2023/11/24 13:44:53;;;;;;;56.33;53.33;;;;;;;;;;5072496;28;20203;-73
2023/11/24 13:47:22;;;;;;;53.65;50.95;;;;;;;;;;5073119;28;20273;-74
2023/11/24 13:49:49;;;;;;;51.83;49.03;;;;;;;;;;5072925;28;20207;-72
2023/11/24 13:52:16;;;;;;;53.60;50.17;;;;;;;;;;5072971;28;20211;-73
2023/11/24 13:54:43;;;;;;;52.83;49.80;;;;;;;;;;5072052;28;20207;-74
2023/11/24 13:57:10;;;;;;;50.20;47.60;;;;;;;;;;5071827;28;20326;-74
2023/11/24 13:59:38;;;;;;;48.17;45.72;;;;;;;;;;5072242;28;20303;-74
2023/11/24 14:02:06;;;;;;;47.70;45.10;;;;;;;;;;5072637;28;20309;-72
2023/11/24 14:04:36;;;;;;;51.92;49.35;;;;;;;;;;5072015;28;20215;-73
2023/11/24 14:07:03;;;;;;;51.42;48.83;;;;;;;;;;5065049;28;20687;-73
2023/11/24 14:09:31;;;;;;;54.03;51.22;;;;;;;;;;5072276;28;20301;-74
2023/11/24 14:11:59;;;;;;;54.38;51.47;;;;;;;;;;5071654;28;20207;-74
2023/11/24 14:14:27;;;;;;;54.03;51.25;;;;;;;;;;5071385;28;20329;-73
2023/11/24 14:16:55;;;;;;;54.40;51.20;;;;;;;;;;5072398;28;20319;-72
2023/11/24 14:19:22;;;;;;;54.72;51.42;;;;;;;;;;5072222;28;20666;-73